createdAt,value
2023-05-23T05:03:45.593Z,10.23
2023-05-23T05:13:49.666Z,9.07
2023-05-23T05:18:52.439Z,11.40
2023-05-23T05:23:55.327Z,10.13
2023-05-23T05:28:57.081Z,11.25
2023-05-23T05:33:59.410Z,13.57
2023-05-23T05:39:02.068Z,15.80
2023-05-23T05:44:03.653Z,18.33
2023-05-23T05:49:05.355Z,19.30
2023-05-23T05:54:07.191Z,21.65
2023-05-23T05:59:08.877Z,19.13
2023-05-23T06:04:12.637Z,23.00
2023-05-23T06:09:16.211Z,19.17
2023-05-23T06:14:18.030Z,20.45
2023-05-23T06:19:21.809Z,20.13
2023-05-23T06:24:23.427Z,18.58
2023-05-23T06:29:24.997Z,19.00
2023-05-23T06:34:26.525Z,19.80
2023-05-23T06:39:28.016Z,19.07
2023-05-23T06:44:29.964Z,16.85
2023-05-23T06:49:31.533Z,16.33
2023-05-23T06:54:33.329Z,19.15
2023-05-23T06:59:35.441Z,15.93
2023-05-23T07:04:38.478Z,14.43
2023-05-23T07:09:46.493Z,17.33
2023-05-23T07:14:52.694Z,13.13
2023-05-23T07:19:56.197Z,11.75
2023-05-23T07:24:58.777Z,13.55
2023-05-23T07:30:07.496Z,12.80
2023-05-23T07:35:11.029Z,13.65
2023-05-23T07:40:12.641Z,12.48
2023-05-23T07:45:14.801Z,14.32
2023-05-23T07:50:18.490Z,13.93
2023-05-23T07:55:20.139Z,17.27
2023-05-23T08:00:22.231Z,13.80
2023-05-23T08:05:30.127Z,14.02
2023-05-23T08:10:32.747Z,14.32
2023-05-23T08:15:41.526Z,13.60
2023-05-23T08:20:49.934Z,15.60
2023-05-23T08:25:52.933Z,14.25
2023-05-23T08:30:57.021Z,17.00
2023-05-23T08:35:59.584Z,17.75
2023-05-23T08:41:02.081Z,21.92
2023-05-23T08:46:06.087Z,22.70
2023-05-23T08:51:14.247Z,21.30
2023-05-23T08:56:16.498Z,22.27
2023-05-23T09:01:23.543Z,22.05
2023-05-23T09:06:28.345Z,25.65
2023-05-23T09:11:36.130Z,24.65
2023-05-23T09:16:40.121Z,29.58
2023-05-23T09:21:47.289Z,29.40
2023-05-23T09:27:09.057Z,33.17
2023-05-23T09:32:16.081Z,38.92
2023-05-23T09:37:19.357Z,32.15
2023-05-23T09:42:25.014Z,26.92
2023-05-23T09:47:27.226Z,26.48
2023-05-23T09:57:41.399Z,20.73
2023-05-23T10:02:55.120Z,17.35
2023-05-23T10:08:00.764Z,15.30
2023-05-23T10:13:05.312Z,14.23
2023-05-23T10:18:14.345Z,19.48
2023-05-23T10:23:16.728Z,17.38
2023-05-23T10:28:18.932Z,17.73
2023-05-23T10:33:22.512Z,14.95
2023-05-23T10:38:36.557Z,15.00
2023-05-23T10:43:57.136Z,15.15
2023-05-23T10:48:59.080Z,12.25
2023-05-23T10:54:00.810Z,12.52
2023-05-23T10:59:06.252Z,12.75
2023-05-23T11:04:07.891Z,15.07
2023-05-23T11:09:21.131Z,13.10
2023-05-23T11:14:38.206Z,12.32
2023-05-23T11:19:40.136Z,11.73
2023-05-23T11:24:52.220Z,12.00
2023-05-23T11:30:04.313Z,13.23
2023-05-23T11:35:08.357Z,14.68
2023-05-23T11:40:30.030Z,11.10
2023-05-23T11:45:32.964Z,11.13
2023-05-23T11:50:43.228Z,13.02
2023-05-23T11:56:00.242Z,13.32
2023-05-23T12:01:03.334Z,11.15
2023-05-23T12:06:05.134Z,12.18
2023-05-23T12:11:07.113Z,11.10
2023-05-23T12:16:08.795Z,13.73
2023-05-23T12:21:10.494Z,14.05
2023-05-23T12:26:12.172Z,15.05
2023-05-23T12:31:22.088Z,13.00
2023-05-23T12:36:29.638Z,14.73
2023-05-23T12:41:33.250Z,11.73
2023-05-23T12:46:34.756Z,11.55
2023-05-23T12:51:36.595Z,13.48
2023-05-23T12:56:38.157Z,9.50
2023-05-23T13:01:39.787Z,11.07
2023-05-23T13:06:41.281Z,10.63
2023-05-23T13:11:42.998Z,9.23
2023-05-23T13:16:45.524Z,8.43
2023-05-23T13:21:49.380Z,8.80
2023-05-23T13:26:51.346Z,9.85
2023-05-23T13:31:53.696Z,12.47
2023-05-23T13:36:55.626Z,12.73
2023-05-23T13:41:57.112Z,11.05
2023-05-23T13:47:12.638Z,10.57
2023-05-23T13:52:14.918Z,9.68
2023-05-23T13:57:16.853Z,14.57
2023-05-23T14:02:18.319Z,11.65
2023-05-23T14:07:20.486Z,9.80
2023-05-23T14:12:21.926Z,8.00
2023-05-23T14:17:23.871Z,6.22
2023-05-23T14:22:25.441Z,11.93
2023-05-23T14:27:27.005Z,6.80
2023-05-23T14:32:28.501Z,4.70
2023-05-23T14:37:29.958Z,5.57
2023-05-23T14:42:31.471Z,6.93
2023-05-23T14:47:33.082Z,8.20
2023-05-23T14:52:34.594Z,9.07
2023-05-23T14:57:36.441Z,8.60
2023-05-23T15:02:37.945Z,8.18
2023-05-23T15:07:40.315Z,8.97
2023-05-23T15:17:43.236Z,9.60
2023-05-23T15:22:44.747Z,9.77
2023-05-23T15:27:46.193Z,11.07
2023-05-23T15:32:48.127Z,8.43
2023-05-23T15:37:49.682Z,8.63
2023-05-23T15:42:51.175Z,5.60
2023-05-23T15:47:52.740Z,7.30
2023-05-23T15:52:54.249Z,6.20
2023-05-23T15:57:55.883Z,7.68
2023-05-23T16:02:57.356Z,8.47
2023-05-23T16:07:58.887Z,5.57
2023-05-23T16:13:00.379Z,6.57
2023-05-23T16:18:03.173Z,9.30
2023-05-23T16:23:04.877Z,6.65
2023-05-23T16:28:06.400Z,6.30
2023-05-23T16:33:07.982Z,7.23
2023-05-23T16:38:09.689Z,6.57
2023-05-23T16:43:12.506Z,8.50
2023-05-23T16:48:14.036Z,7.05
2023-05-23T16:53:15.625Z,6.20
2023-05-23T16:58:18.713Z,5.38
2023-05-23T17:03:21.761Z,4.13
2023-05-23T17:08:23.291Z,4.70
2023-05-23T17:13:24.845Z,7.88
2023-05-23T17:18:26.332Z,6.25
2023-05-23T17:23:27.904Z,7.25
2023-05-23T17:28:29.434Z,4.63
2023-05-23T17:33:30.908Z,4.25
2023-05-23T17:38:32.594Z,5.22
2023-05-23T17:43:34.091Z,4.83
2023-05-23T17:48:47.061Z,4.22
2023-05-23T17:53:53.397Z,4.25
2023-05-23T17:58:54.887Z,3.28
2023-05-23T18:03:56.605Z,5.85
2023-05-23T18:08:58.115Z,7.80
2023-05-23T18:13:59.567Z,11.35
2023-05-23T18:19:01.213Z,6.90
2023-05-23T18:24:03.941Z,6.77
2023-05-23T18:34:06.940Z,8.60
2023-05-23T18:39:09.117Z,11.40
2023-05-23T18:44:10.949Z,19.33
2023-05-23T18:49:12.484Z,26.27
2023-05-23T18:54:13.968Z,23.85
2023-05-23T18:59:16.802Z,28.25
2023-05-23T19:04:18.460Z,27.85
2023-05-23T19:09:20.234Z,0.70
2023-05-23T19:14:21.808Z,0.52
2023-05-23T19:19:23.284Z,0.38
2023-05-23T19:24:24.828Z,0.50
2023-05-23T19:29:26.441Z,0.45
2023-05-23T19:34:28.282Z,0.47
2023-05-23T19:39:29.734Z,0.60
2023-05-23T19:44:31.397Z,0.30
2023-05-23T19:49:32.917Z,0.30
2023-05-23T19:54:34.563Z,0.40
2023-05-23T19:59:36.044Z,0.30
2023-05-23T20:04:37.495Z,0.40
2023-05-23T20:09:38.940Z,0.40
2023-05-23T20:14:40.889Z,0.40
2023-05-23T20:19:42.598Z,0.50
2023-05-23T20:24:44.066Z,0.30
2023-05-23T20:29:45.669Z,0.40
2023-05-23T20:34:47.150Z,21.52
2023-05-23T20:39:49.206Z,24.70
2023-05-23T20:44:50.653Z,23.42
2023-05-23T20:49:52.111Z,21.90
2023-05-23T20:54:54.421Z,20.48
2023-05-23T20:59:55.994Z,22.65
2023-05-23T21:05:00.499Z,15.00
2023-05-23T21:15:53.983Z,18.90
2023-05-23T21:20:55.826Z,17.77
2023-05-23T21:25:57.376Z,18.83
2023-05-23T21:30:58.832Z,27.42
2023-05-23T21:36:01.076Z,23.55
2023-05-23T21:41:02.673Z,22.42
2023-05-23T21:46:04.180Z,24.00
2023-05-23T21:51:05.766Z,21.42
2023-05-23T21:56:07.370Z,21.05
